createdAt,value
2023-01-28T00:00:50.393Z,0.00
2023-01-28T00:05:51.093Z,0.00
2023-01-28T00:10:51.823Z,0.00
2023-01-28T00:15:52.597Z,0.00
2023-01-28T00:20:53.301Z,0.00
2023-01-28T00:25:53.997Z,0.00
2023-01-28T00:30:54.747Z,0.00
2023-01-28T00:35:55.457Z,0.00
2023-01-28T00:40:56.208Z,0.00
2023-01-28T00:45:57.019Z,0.00
2023-01-28T00:50:57.719Z,0.00
2023-01-28T00:55:58.501Z,0.00
2023-01-28T01:00:59.218Z,0.00
2023-01-28T01:05:59.934Z,0.00
2023-01-28T01:11:00.663Z,0.00
2023-01-28T01:16:01.500Z,0.00
2023-01-28T01:21:02.177Z,0.00
2023-01-28T01:26:02.916Z,0.00
2023-01-28T01:31:03.699Z,0.00
2023-01-28T01:36:04.363Z,0.00
2023-01-28T01:41:05.072Z,0.00
2023-01-28T01:46:05.858Z,0.00
2023-01-28T01:51:06.536Z,0.00
2023-01-28T01:56:07.256Z,0.00
2023-01-28T02:01:07.954Z,0.00
2023-01-28T02:06:08.675Z,0.00
2023-01-28T02:11:09.370Z,0.00
2023-01-28T02:16:10.096Z,0.00
2023-01-28T02:21:10.807Z,0.00
2023-01-28T02:26:11.514Z,0.00
2023-01-28T02:31:12.364Z,0.00
2023-01-28T02:36:13.127Z,0.00
2023-01-28T02:41:13.824Z,0.00
2023-01-28T02:46:14.598Z,0.00
2023-01-28T02:51:15.410Z,0.00
2023-01-28T02:56:16.228Z,0.00
2023-01-28T03:01:16.988Z,0.00
2023-01-28T03:06:17.694Z,0.00
2023-01-28T03:11:18.389Z,0.00
2023-01-28T03:16:19.148Z,0.00
2023-01-28T03:21:19.878Z,0.00
2023-01-28T03:26:20.587Z,0.00
2023-01-28T03:31:21.343Z,0.00
2023-01-28T03:36:22.064Z,0.00
2023-01-28T03:41:22.769Z,0.00
2023-01-28T03:46:23.596Z,0.00
2023-01-28T03:51:24.303Z,0.00
2023-01-28T03:56:25.140Z,0.00
2023-01-28T04:01:25.893Z,0.00
2023-01-28T04:06:26.566Z,0.00
2023-01-28T04:11:27.313Z,0.00
2023-01-28T04:16:28.093Z,0.00
2023-01-28T04:21:28.785Z,0.00
2023-01-28T04:26:29.517Z,0.00
2023-01-28T04:31:30.332Z,0.00
2023-01-28T04:36:31.004Z,0.00
2023-01-28T04:41:31.718Z,0.00
2023-01-28T04:46:32.447Z,0.00
2023-01-28T04:51:33.162Z,0.00
2023-01-28T04:56:33.899Z,0.00
2023-01-28T05:01:34.613Z,0.00
2023-01-28T05:06:35.388Z,0.00
2023-01-28T05:11:38.931Z,0.00
2023-01-28T05:16:36.850Z,0.00
2023-01-28T05:21:37.581Z,0.00
2023-01-28T05:26:38.290Z,0.00
2023-01-28T05:31:39.032Z,0.00
2023-01-28T05:36:39.758Z,0.00
2023-01-28T05:41:47.417Z,0.00
2023-01-28T05:46:41.102Z,0.00
2023-01-28T05:51:41.836Z,0.00
2023-01-28T05:56:42.535Z,0.00
2023-01-28T06:01:43.239Z,0.00
2023-01-28T06:06:43.949Z,0.00
2023-01-28T06:11:44.679Z,0.00
2023-01-28T06:16:45.309Z,0.00
2023-01-28T06:21:46.022Z,0.00
2023-01-28T06:26:46.736Z,0.00
2023-01-28T06:31:47.499Z,0.00
2023-01-28T06:36:48.124Z,0.00
2023-01-28T06:41:48.865Z,0.00
2023-01-28T06:46:49.559Z,0.00
2023-01-28T06:51:50.222Z,0.00
2023-01-28T06:56:50.859Z,0.00
2023-01-28T07:01:51.578Z,0.00
2023-01-28T07:06:52.254Z,0.00
2023-01-28T07:11:52.923Z,0.00
2023-01-28T07:16:53.667Z,5.62
2023-01-28T07:21:54.280Z,5.62
2023-01-28T07:26:55.037Z,5.62
2023-01-28T07:31:55.761Z,11.25
2023-01-28T07:36:57.538Z,11.25
2023-01-28T07:41:57.248Z,11.25
2023-01-28T07:46:57.916Z,16.88
2023-01-28T07:51:58.651Z,16.88
2023-01-28T07:56:59.300Z,16.88
2023-01-28T08:01:59.954Z,22.50
2023-01-28T08:07:00.621Z,22.50
2023-01-28T08:12:01.278Z,28.12
2023-01-28T08:17:01.969Z,28.12
2023-01-28T08:22:02.600Z,28.12
2023-01-28T08:27:03.271Z,33.75
2023-01-28T08:32:04.036Z,33.75
2023-01-28T08:37:04.780Z,28.12
2023-01-28T08:42:05.452Z,33.75
2023-01-28T08:47:06.118Z,33.75
2023-01-28T08:52:06.814Z,39.38
2023-01-28T08:57:07.473Z,39.38
2023-01-28T09:02:12.234Z,39.38
2023-01-28T09:07:09.708Z,45.00
2023-01-28T09:12:09.365Z,45.00
2023-01-28T09:17:10.078Z,50.62
2023-01-28T09:22:10.757Z,50.62
2023-01-28T09:27:11.454Z,50.62
2023-01-28T09:32:12.091Z,50.62
2023-01-28T09:37:12.866Z,56.25
2023-01-28T09:42:13.538Z,50.62
2023-01-28T09:47:14.187Z,50.62
2023-01-28T09:52:14.853Z,56.25
2023-01-28T09:57:15.538Z,56.25
2023-01-28T10:02:16.213Z,56.25
2023-01-28T10:07:16.876Z,56.25
2023-01-28T10:12:17.585Z,56.25
2023-01-28T10:17:18.361Z,61.88
2023-01-28T10:22:19.023Z,61.88
2023-01-28T10:27:19.814Z,61.88
2023-01-28T10:32:20.453Z,61.88
2023-01-28T10:37:21.109Z,73.12
2023-01-28T10:42:21.874Z,67.50
2023-01-28T10:47:22.522Z,67.50
2023-01-28T10:52:23.187Z,56.25
2023-01-28T10:57:23.898Z,61.88
2023-01-28T11:02:24.649Z,61.88
2023-01-28T11:07:25.310Z,61.88
2023-01-28T11:12:25.988Z,56.25
2023-01-28T11:17:26.783Z,56.25
2023-01-28T11:22:27.397Z,50.62
2023-01-28T11:27:28.062Z,45.00
2023-01-28T11:32:28.761Z,45.00
2023-01-28T11:37:29.423Z,45.00
2023-01-28T11:42:30.130Z,45.00
2023-01-28T11:47:30.807Z,45.00
2023-01-28T11:52:48.664Z,45.00
2023-01-28T11:57:33.176Z,45.00
2023-01-28T12:02:32.879Z,45.00
2023-01-28T12:07:33.543Z,45.00
2023-01-28T12:12:34.303Z,39.38
2023-01-28T12:17:34.957Z,45.00
2023-01-28T12:22:35.653Z,45.00
2023-01-28T12:27:36.400Z,45.00
2023-01-28T12:32:37.101Z,39.38
2023-01-28T12:37:37.881Z,39.38
2023-01-28T12:42:38.553Z,33.75
2023-01-28T12:47:39.285Z,33.75
2023-01-28T12:52:40.007Z,33.75
2023-01-28T12:57:40.680Z,28.12
2023-01-28T13:02:41.460Z,22.50
2023-01-28T13:07:42.197Z,33.75
2023-01-28T13:12:42.846Z,50.62
2023-01-28T13:17:43.522Z,67.50
2023-01-28T13:22:44.290Z,67.50
2023-01-28T13:27:44.985Z,67.50
2023-01-28T13:32:45.704Z,50.62
2023-01-28T13:37:46.406Z,50.62
2023-01-28T13:42:47.242Z,56.25
2023-01-28T13:47:47.992Z,56.25
2023-01-28T13:52:48.645Z,50.62
2023-01-28T13:57:49.322Z,56.25
2023-01-28T14:02:50.071Z,50.62
2023-01-28T14:07:50.748Z,45.00
2023-01-28T14:12:51.440Z,45.00
2023-01-28T14:17:59.101Z,39.38
2023-01-28T14:22:52.719Z,33.75
2023-01-28T14:27:53.403Z,33.75
2023-01-28T14:32:54.064Z,28.12
2023-01-28T14:37:54.732Z,28.12
2023-01-28T14:42:55.496Z,28.12
2023-01-28T14:47:56.147Z,16.88
2023-01-28T14:52:56.802Z,16.88
2023-01-28T14:57:57.463Z,16.88
2023-01-28T15:02:58.201Z,11.25
2023-01-28T15:07:58.827Z,11.25
2023-01-28T15:12:59.491Z,5.62
2023-01-28T15:18:00.175Z,5.62
2023-01-28T15:23:00.817Z,5.62
2023-01-28T15:28:01.581Z,5.62
2023-01-28T15:33:02.201Z,0.00
2023-01-28T15:38:02.828Z,0.00
2023-01-28T15:43:03.481Z,0.00
2023-01-28T15:48:04.267Z,0.00
2023-01-28T15:53:04.899Z,0.00
2023-01-28T15:58:05.559Z,0.00
2023-01-28T16:03:06.266Z,0.00
2023-01-28T16:08:06.948Z,0.00
2023-01-28T16:13:07.603Z,0.00
2023-01-28T16:18:08.264Z,0.00
2023-01-28T16:23:08.914Z,0.00
2023-01-28T16:28:09.692Z,0.00
2023-01-28T16:33:10.341Z,0.00
2023-01-28T16:38:11.048Z,0.00
2023-01-28T16:43:11.771Z,0.00
2023-01-28T16:48:12.441Z,0.00
2023-01-28T16:53:13.123Z,0.00
2023-01-28T16:58:13.831Z,0.00
2023-01-28T17:03:14.533Z,0.00
2023-01-28T17:08:15.302Z,0.00
2023-01-28T17:13:16.028Z,0.00
2023-01-28T17:18:16.689Z,0.00
2023-01-28T17:23:17.431Z,0.00
2023-01-28T17:28:18.348Z,0.00
2023-01-28T17:33:19.038Z,0.00
2023-01-28T17:38:19.744Z,0.00
2023-01-28T17:43:20.574Z,0.00
2023-01-28T17:48:21.314Z,0.00
2023-01-28T17:53:22.022Z,0.00
2023-01-28T17:58:22.824Z,0.00
2023-01-28T18:03:23.558Z,0.00
2023-01-28T18:08:24.273Z,0.00
2023-01-28T18:13:25.005Z,0.00
2023-01-28T18:18:25.707Z,0.00
2023-01-28T18:23:26.420Z,0.00
2023-01-28T18:28:27.156Z,0.00
2023-01-28T18:33:27.896Z,0.00
2023-01-28T18:38:28.633Z,0.00
2023-01-28T18:43:29.375Z,0.00
2023-01-28T18:48:30.120Z,0.00
2023-01-28T18:53:30.900Z,0.00
2023-01-28T18:58:31.664Z,0.00
2023-01-28T19:03:32.378Z,0.00
2023-01-28T19:08:33.140Z,0.00
2023-01-28T19:13:33.875Z,0.00
2023-01-28T19:18:34.671Z,0.00
2023-01-28T19:23:49.238Z,0.00
2023-01-28T19:28:37.120Z,0.00
2023-01-28T19:33:36.823Z,0.00
2023-01-28T19:38:37.528Z,0.00
2023-01-28T19:43:38.351Z,0.00
2023-01-28T19:48:39.111Z,0.00
2023-01-28T19:53:39.841Z,0.00
2023-01-28T19:58:40.556Z,0.00
2023-01-28T20:03:41.396Z,0.00
2023-01-28T20:08:42.117Z,0.00
2023-01-28T20:13:42.863Z,0.00
2023-01-28T20:18:43.567Z,0.00
2023-01-28T20:23:44.286Z,0.00
2023-01-28T20:28:45.033Z,0.00
2023-01-28T20:33:45.734Z,0.00
2023-01-28T20:38:46.485Z,0.00
2023-01-28T20:43:47.259Z,0.00
2023-01-28T20:48:47.977Z,0.00
2023-01-28T20:53:48.736Z,0.00
2023-01-28T20:58:49.437Z,0.00
2023-01-28T21:03:50.172Z,0.00
2023-01-28T21:08:50.910Z,0.00
2023-01-28T21:13:51.605Z,0.00
2023-01-28T21:18:52.326Z,0.00
2023-01-28T21:23:53.107Z,0.00
2023-01-28T21:28:53.783Z,0.00
2023-01-28T21:33:54.483Z,0.00
2023-01-28T21:38:55.216Z,0.00
2023-01-28T21:43:55.922Z,0.00
2023-01-28T21:48:56.678Z,0.00
2023-01-28T21:53:57.374Z,0.00
2023-01-28T21:58:58.100Z,0.00
2023-01-28T22:03:58.827Z,0.00
2023-01-28T22:08:59.576Z,0.00
2023-01-28T22:14:00.272Z,0.00
2023-01-28T22:19:00.995Z,0.00
2023-01-28T22:24:01.863Z,0.00
2023-01-28T22:29:02.557Z,0.00
2023-01-28T22:34:03.380Z,0.00
2023-01-28T22:39:04.060Z,0.00
2023-01-28T22:44:04.794Z,0.00
2023-01-28T22:49:05.613Z,0.00
2023-01-28T22:54:06.323Z,0.00
2023-01-28T22:59:07.143Z,0.00
2023-01-28T23:04:07.824Z,0.00
2023-01-28T23:09:15.616Z,0.00
2023-01-28T23:14:09.443Z,0.00
2023-01-28T23:19:10.310Z,0.00
2023-01-28T23:24:11.120Z,0.00
2023-01-28T23:29:11.889Z,0.00
2023-01-28T23:34:12.580Z,0.00
2023-01-28T23:39:13.277Z,0.00
2023-01-28T23:44:14.009Z,0.00
2023-01-28T23:49:14.717Z,0.00
2023-01-28T23:54:15.405Z,0.00
2023-01-28T23:59:16.130Z,0.00
